createdAt,value
2023-02-18T00:02:19.160Z,9.60
2023-02-18T00:07:21.414Z,9.50
2023-02-18T00:12:23.713Z,9.40
2023-02-18T00:17:26.256Z,9.30
2023-02-18T00:22:30.199Z,9.10
2023-02-18T00:27:32.018Z,9.10
2023-02-18T00:32:35.516Z,9.10
2023-02-18T00:37:37.403Z,9.10
2023-02-18T00:42:40.642Z,9.10
2023-02-18T00:47:42.654Z,9.10
2023-02-18T00:52:44.489Z,9.20
2023-02-18T00:57:46.262Z,9.20
2023-02-18T01:02:48.327Z,9.30
2023-02-18T01:07:50.161Z,9.30
2023-02-18T01:12:53.047Z,9.30
2023-02-18T01:17:56.271Z,9.20
2023-02-18T01:22:58.091Z,9.20
2023-02-18T01:27:59.904Z,9.20
2023-02-18T01:33:01.782Z,9.30
2023-02-18T01:38:03.661Z,9.20
2023-02-18T01:43:05.640Z,9.20
2023-02-18T01:48:13.799Z,9.20
2023-02-18T01:53:21.480Z,9.20
2023-02-18T01:58:24.158Z,9.20
2023-02-18T02:03:26.123Z,9.40
2023-02-18T02:08:29.982Z,9.30
2023-02-18T02:14:06.443Z,9.30
2023-02-18T02:19:38.867Z,9.30
2023-02-18T02:24:46.565Z,9.30
2023-02-18T02:30:04.235Z,9.40
2023-02-18T02:35:24.601Z,9.40
2023-02-18T02:40:43.472Z,9.30
2023-02-18T02:46:07.695Z,9.40
2023-02-18T02:51:13.325Z,9.50
2023-02-18T02:56:17.917Z,9.50
2023-02-18T03:01:43.968Z,9.50
2023-02-18T03:07:09.906Z,9.50
2023-02-18T03:12:27.021Z,9.50
2023-02-18T03:17:38.035Z,9.50
2023-02-18T03:22:45.025Z,9.50
2023-02-18T03:28:03.015Z,9.50
2023-02-18T03:33:07.733Z,9.50
2023-02-18T03:38:24.131Z,9.50
2023-02-18T03:43:30.844Z,9.50
2023-02-18T03:48:32.697Z,9.50
2023-02-18T03:53:34.502Z,9.40
2023-02-18T03:58:40.864Z,9.40
2023-02-18T04:03:44.428Z,9.40
2023-02-18T04:08:47.382Z,9.40
2023-02-18T04:13:51.038Z,9.40
2023-02-18T04:18:53.047Z,9.40
2023-02-18T04:23:55.093Z,9.30
2023-02-18T04:28:57.126Z,9.30
2023-02-18T04:33:59.001Z,9.50
2023-02-18T04:39:00.774Z,9.40
2023-02-18T04:44:02.642Z,9.30
2023-02-18T04:49:04.757Z,9.40
2023-02-18T04:54:07.040Z,9.30
2023-02-18T04:59:08.823Z,9.40
2023-02-18T05:04:11.994Z,9.30
2023-02-18T05:09:15.361Z,9.40
2023-02-18T05:14:17.572Z,9.40
2023-02-18T05:19:20.075Z,9.50
2023-02-18T05:24:22.445Z,9.30
2023-02-18T05:29:24.658Z,9.30
2023-02-18T05:34:26.487Z,9.40
2023-02-18T05:39:28.511Z,9.30
2023-02-18T05:44:30.477Z,9.40
2023-02-18T05:49:34.161Z,9.40
2023-02-18T05:54:36.868Z,9.40
2023-02-18T05:59:40.363Z,9.40
2023-02-18T06:04:42.087Z,9.40
2023-02-18T06:09:44.371Z,9.50
2023-02-18T06:14:47.612Z,9.50
2023-02-18T06:19:50.585Z,9.50
2023-02-18T06:24:56.839Z,9.50
2023-02-18T06:29:58.826Z,9.50
2023-02-18T06:35:00.998Z,9.60
2023-02-18T06:40:02.859Z,9.50
2023-02-18T06:45:06.730Z,9.50
2023-02-18T06:50:08.882Z,9.60
2023-02-18T06:55:11.199Z,9.70
2023-02-18T07:00:15.027Z,9.60
2023-02-18T07:05:19.200Z,9.60
2023-02-18T07:10:21.272Z,9.70
2023-02-18T07:15:24.510Z,9.70
2023-02-18T07:20:29.238Z,9.80
2023-02-18T07:25:31.161Z,9.80
2023-02-18T07:30:33.548Z,9.90
2023-02-18T07:35:35.426Z,10.00
2023-02-18T07:40:37.274Z,10.00
2023-02-18T07:45:39.639Z,10.10
2023-02-18T07:50:46.071Z,10.20
2023-02-18T07:55:50.652Z,10.40
2023-02-18T08:00:54.747Z,10.50
2023-02-18T08:05:59.095Z,10.50
2023-02-18T08:11:18.489Z,10.50
2023-02-18T08:16:23.693Z,10.60
2023-02-18T08:21:28.706Z,10.70
2023-02-18T08:26:32.232Z,10.80
2023-02-18T08:31:34.261Z,10.90
2023-02-18T08:36:36.247Z,11.00
2023-02-18T08:41:38.027Z,11.10
2023-02-18T08:46:39.976Z,11.00
2023-02-18T08:51:43.832Z,11.20
2023-02-18T08:56:48.249Z,11.20
2023-02-18T09:01:50.156Z,11.40
2023-02-18T09:06:52.084Z,11.50
2023-02-18T09:11:54.242Z,11.60
2023-02-18T09:16:57.568Z,11.60
2023-02-18T09:22:00.784Z,11.60
2023-02-18T09:27:04.045Z,11.50
2023-02-18T09:32:06.889Z,11.50
2023-02-18T09:37:10.019Z,11.50
2023-02-18T09:42:17.770Z,11.70
2023-02-18T09:47:32.994Z,11.80
2023-02-18T09:52:46.541Z,11.90
2023-02-18T09:57:58.093Z,12.00
2023-02-18T10:03:08.248Z,12.10
2023-02-18T10:08:22.931Z,12.30
2023-02-18T10:13:30.921Z,12.40
2023-02-18T10:18:46.365Z,12.50
2023-02-18T10:24:03.389Z,12.60
2023-02-18T10:29:14.697Z,12.80
2023-02-18T10:35:00.564Z,12.90
2023-02-18T10:40:39.064Z,13.00
2023-02-18T10:46:16.442Z,13.00
2023-02-18T10:51:44.527Z,13.10
2023-02-18T10:56:51.628Z,13.20
2023-02-18T11:02:01.765Z,13.10
2023-02-18T11:07:25.884Z,13.10
2023-02-18T11:12:50.428Z,13.10
2023-02-18T11:17:59.113Z,13.10
2023-02-18T11:23:20.212Z,13.00
2023-02-18T11:28:51.696Z,13.00
2023-02-18T11:34:01.450Z,12.90
2023-02-18T11:39:17.442Z,12.90
2023-02-18T11:44:35.374Z,12.90
2023-02-18T11:49:40.661Z,12.90
2023-02-18T11:54:42.649Z,12.80
2023-02-18T11:59:45.984Z,12.80
2023-02-18T12:04:56.376Z,12.70
2023-02-18T12:10:26.450Z,12.70
2023-02-18T12:16:18.409Z,12.80
2023-02-18T12:21:41.351Z,13.10
2023-02-18T12:27:07.346Z,13.00
2023-02-18T12:32:12.168Z,13.00
2023-02-18T12:37:38.079Z,13.00
2023-02-18T12:42:56.787Z,13.00
2023-02-18T12:48:33.842Z,13.00
2023-02-18T12:53:59.103Z,13.00
2023-02-18T12:59:28.993Z,12.90
2023-02-18T13:04:58.787Z,13.00
2023-02-18T13:10:11.936Z,13.10
2023-02-18T13:15:29.679Z,13.00
2023-02-18T13:20:52.530Z,12.90
2023-02-18T13:26:01.963Z,12.90
2023-02-18T13:31:18.645Z,12.90
2023-02-18T13:36:32.527Z,12.90
2023-02-18T13:41:42.810Z,12.90
2023-02-18T13:46:49.725Z,13.00
2023-02-18T13:51:55.758Z,13.20
2023-02-18T13:57:07.632Z,13.20
2023-02-18T14:02:22.275Z,13.20
2023-02-18T14:07:36.413Z,13.20
2023-02-18T14:12:56.678Z,13.10
2023-02-18T14:18:24.190Z,12.80
2023-02-18T14:23:55.530Z,12.70
2023-02-18T14:29:07.019Z,12.50
2023-02-18T14:34:27.918Z,12.50
2023-02-18T14:39:36.367Z,12.60
2023-02-18T14:45:09.978Z,12.80
2023-02-18T14:50:16.763Z,13.00
2023-02-18T14:55:26.514Z,13.30
2023-02-18T15:00:33.543Z,13.30
2023-02-18T15:05:39.461Z,12.80
2023-02-18T15:10:58.367Z,12.50
2023-02-18T15:16:08.000Z,12.50
2023-02-18T15:21:43.279Z,12.40
2023-02-18T15:26:50.372Z,12.20
2023-02-18T15:31:54.778Z,12.10
2023-02-18T15:36:58.717Z,12.00
2023-02-18T15:42:27.391Z,11.90
2023-02-18T15:47:30.074Z,11.80
2023-02-18T15:52:33.955Z,11.80
2023-02-18T15:57:36.950Z,11.80
2023-02-18T16:02:52.933Z,11.70
2023-02-18T16:08:05.794Z,11.70
2023-02-18T16:13:07.776Z,11.60
2023-02-18T16:18:25.265Z,11.60
2023-02-18T16:23:34.708Z,11.60
2023-02-18T16:28:42.083Z,11.60
2023-02-18T16:33:44.018Z,11.50
2023-02-18T16:38:46.362Z,11.50
2023-02-18T16:43:48.214Z,11.40
2023-02-18T16:48:57.433Z,11.40
2023-02-18T16:54:00.149Z,11.40
2023-02-18T16:59:02.389Z,11.40
2023-02-18T17:04:09.529Z,11.30
2023-02-18T17:09:18.469Z,11.30
2023-02-18T17:14:22.031Z,11.30
2023-02-18T17:19:24.205Z,11.30
2023-02-18T17:24:26.152Z,11.10
2023-02-18T17:29:28.488Z,10.90
2023-02-18T17:34:32.584Z,11.00
2023-02-18T17:39:35.487Z,11.00
2023-02-18T17:44:39.358Z,11.10
2023-02-18T17:49:42.353Z,11.20
2023-02-18T17:54:46.880Z,11.00
2023-02-18T17:59:48.583Z,10.90
2023-02-18T18:04:52.863Z,10.90
2023-02-18T18:09:54.755Z,10.90
2023-02-18T18:14:56.696Z,10.90
2023-02-18T18:19:59.380Z,10.90
2023-02-18T18:25:05.475Z,10.90
2023-02-18T18:30:08.481Z,10.80
2023-02-18T18:35:20.326Z,10.80
2023-02-18T18:40:26.718Z,10.90
2023-02-18T18:45:39.820Z,10.90
2023-02-18T18:50:42.126Z,10.90
2023-02-18T18:55:45.548Z,10.80
2023-02-18T19:00:53.609Z,10.70
2023-02-18T19:05:56.190Z,10.60
2023-02-18T19:10:58.327Z,10.50
2023-02-18T19:16:20.313Z,10.50
2023-02-18T19:21:22.177Z,10.60
2023-02-18T19:26:24.345Z,10.60
2023-02-18T19:31:28.939Z,10.60
2023-02-18T19:36:31.048Z,10.40
2023-02-18T19:41:35.160Z,10.40
2023-02-18T19:46:37.103Z,10.40
2023-02-18T19:51:39.433Z,10.40
2023-02-18T19:56:41.482Z,10.50
2023-02-18T20:01:45.573Z,10.50
2023-02-18T20:06:52.976Z,10.50
2023-02-18T20:11:54.782Z,10.40
2023-02-18T20:16:58.108Z,10.40
2023-02-18T20:22:00.800Z,10.60
2023-02-18T20:27:04.373Z,10.50
2023-02-18T20:32:06.914Z,10.70
2023-02-18T20:37:08.705Z,10.60
2023-02-18T20:42:16.609Z,10.60
2023-02-18T20:47:20.035Z,10.70
2023-02-18T20:52:21.948Z,10.60
2023-02-18T20:57:24.385Z,10.50
2023-02-18T21:02:28.615Z,10.50
2023-02-18T21:07:30.477Z,10.50
2023-02-18T21:12:32.212Z,10.40
2023-02-18T21:17:34.422Z,10.50
2023-02-18T21:22:37.087Z,10.40
2023-02-18T21:27:40.570Z,10.50
2023-02-18T21:32:42.909Z,10.50
2023-02-18T21:37:45.135Z,10.40
2023-02-18T21:42:47.495Z,10.40
2023-02-18T21:47:49.633Z,10.40
2023-02-18T21:52:51.943Z,10.30
2023-02-18T21:57:53.952Z,10.40
2023-02-18T22:02:56.264Z,10.40
2023-02-18T22:07:58.083Z,10.40
2023-02-18T22:13:00.483Z,10.40
2023-02-18T22:18:02.431Z,10.40
2023-02-18T22:23:04.347Z,10.40
2023-02-18T22:28:07.501Z,10.30
2023-02-18T22:33:11.626Z,10.20
2023-02-18T22:38:14.717Z,10.00
2023-02-18T22:43:17.856Z,10.00
2023-02-18T22:48:21.505Z,10.00
2023-02-18T22:53:23.736Z,10.10
2023-02-18T22:58:26.119Z,10.20
2023-02-18T23:03:30.832Z,10.20
2023-02-18T23:08:33.731Z,10.20
2023-02-18T23:13:36.321Z,10.30
2023-02-18T23:18:38.095Z,10.30
2023-02-18T23:23:40.241Z,10.30
2023-02-18T23:28:48.217Z,10.30
2023-02-18T23:33:55.831Z,10.30
2023-02-18T23:39:03.872Z,10.30
2023-02-18T23:44:07.602Z,10.30
2023-02-18T23:49:11.295Z,10.20
2023-02-18T23:54:13.307Z,10.30
2023-02-18T23:59:15.248Z,10.20
